createdAt,value
2023-05-05T00:00:31.659Z,78.47
2023-05-05T00:01:33.518Z,78.70
2023-05-05T00:02:35.390Z,79.06
2023-05-05T00:03:37.664Z,79.49
2023-05-05T00:04:39.494Z,79.73
2023-05-05T00:05:42.277Z,79.68
2023-05-05T00:06:43.991Z,79.83
2023-05-05T00:07:45.764Z,79.94
2023-05-05T00:08:47.735Z,80.22
2023-05-05T00:09:49.469Z,80.01
2023-05-05T00:10:52.306Z,80.12
2023-05-05T00:11:54.004Z,80.32
2023-05-05T00:12:55.754Z,80.55
2023-05-05T00:13:57.506Z,80.69
2023-05-05T00:14:59.229Z,80.98
2023-05-05T00:16:01.047Z,81.33
2023-05-05T00:17:04.180Z,81.30
2023-05-05T00:18:06.140Z,81.41
2023-05-05T00:19:07.949Z,81.50
2023-05-05T00:20:10.082Z,81.48
2023-05-05T00:21:12.026Z,80.81
2023-05-05T00:22:13.735Z,80.77
2023-05-05T00:23:16.380Z,80.63
2023-05-05T00:24:18.139Z,79.67
2023-05-05T00:25:19.866Z,78.77
2023-05-05T00:26:21.723Z,78.21
2023-05-05T00:27:23.424Z,77.61
2023-05-05T00:28:25.159Z,77.66
2023-05-05T00:29:26.900Z,77.05
2023-05-05T00:30:28.705Z,76.98
2023-05-05T00:31:30.596Z,76.96
2023-05-05T00:32:32.500Z,77.11
2023-05-05T00:33:34.297Z,76.61
2023-05-05T00:34:36.064Z,76.54
2023-05-05T00:35:37.998Z,76.02
2023-05-05T00:36:40.079Z,76.21
2023-05-05T00:37:41.887Z,75.71
2023-05-05T00:38:43.684Z,75.78
2023-05-05T00:39:45.374Z,75.92
2023-05-05T00:40:47.087Z,76.27
2023-05-05T00:41:48.855Z,76.30
2023-05-05T00:42:53.595Z,76.28
2023-05-05T00:43:55.330Z,76.44
2023-05-05T00:44:57.558Z,76.22
2023-05-05T00:46:09.360Z,76.26
2023-05-05T00:47:14.873Z,76.35
2023-05-05T00:48:17.966Z,76.67
2023-05-05T00:49:19.712Z,76.05
2023-05-05T00:50:26.529Z,75.95
2023-05-05T00:51:28.747Z,76.11
2023-05-05T00:52:31.439Z,76.35
2023-05-05T00:53:33.843Z,76.07
2023-05-05T00:54:36.591Z,75.92
2023-05-05T00:55:38.387Z,75.88
2023-05-05T00:56:40.298Z,75.87
2023-05-05T00:57:42.228Z,75.75
2023-05-05T00:58:44.272Z,76.05
2023-05-05T00:59:47.003Z,76.02
2023-05-05T01:00:48.957Z,76.09
2023-05-05T01:01:50.979Z,76.06
2023-05-05T01:02:52.996Z,75.84
2023-05-05T01:03:55.665Z,76.01
2023-05-05T01:04:58.539Z,75.98
2023-05-05T01:06:03.237Z,76.18
2023-05-05T01:07:35.386Z,76.79
2023-05-05T01:09:02.181Z,77.84
2023-05-05T01:10:20.101Z,78.19
2023-05-05T01:11:40.310Z,78.51
2023-05-05T01:12:42.025Z,79.26
2023-05-05T01:13:58.256Z,79.16
2023-05-05T01:15:02.931Z,79.22
2023-05-05T01:16:27.687Z,79.21
2023-05-05T01:17:41.960Z,79.60
2023-05-05T01:18:47.012Z,79.69
2023-05-05T01:20:33.149Z,79.66
2023-05-05T01:21:43.319Z,79.58
2023-05-05T01:22:57.411Z,79.79
2023-05-05T01:24:25.490Z,79.78
2023-05-05T01:25:57.532Z,79.69
2023-05-05T01:27:52.691Z,79.13
2023-05-05T01:28:59.971Z,78.17
2023-05-05T01:30:24.611Z,77.69
2023-05-05T01:31:55.176Z,77.42
2023-05-05T01:33:04.065Z,77.31
2023-05-05T01:34:09.921Z,77.56
2023-05-05T01:35:14.398Z,77.42
2023-05-05T01:36:23.692Z,77.44
2023-05-05T01:37:30.738Z,77.40
2023-05-05T01:38:38.125Z,77.47
2023-05-05T01:39:42.879Z,77.12
2023-05-05T01:41:03.863Z,77.22
2023-05-05T01:42:10.121Z,77.10
2023-05-05T01:43:13.638Z,77.37
2023-05-05T01:44:16.964Z,77.10
2023-05-05T01:45:21.904Z,77.23
2023-05-05T01:46:24.840Z,77.22
2023-05-05T01:47:28.533Z,77.24
2023-05-05T01:48:31.232Z,77.25
2023-05-05T01:49:34.039Z,77.40
2023-05-05T01:50:36.993Z,77.02
2023-05-05T01:51:40.613Z,77.35
2023-05-05T01:52:43.197Z,77.26
2023-05-05T01:53:47.397Z,77.10
2023-05-05T01:54:50.815Z,77.29
2023-05-05T01:55:54.581Z,77.65
2023-05-05T01:56:59.079Z,78.02
2023-05-05T01:58:02.549Z,77.85
2023-05-05T01:59:05.372Z,77.90
2023-05-05T02:00:09.831Z,78.67
2023-05-05T02:01:13.760Z,79.85
2023-05-05T02:02:16.738Z,80.01
2023-05-05T02:03:21.052Z,80.20
2023-05-05T02:04:24.374Z,80.15
2023-05-05T02:05:27.221Z,80.39
2023-05-05T02:06:32.623Z,80.68
2023-05-05T02:07:35.462Z,80.57
2023-05-05T02:08:39.422Z,80.41
2023-05-05T02:09:43.392Z,80.89
2023-05-05T02:10:47.841Z,80.91
2023-05-05T02:11:50.070Z,80.61
2023-05-05T02:12:53.283Z,80.66
2023-05-05T02:13:55.941Z,80.70
2023-05-05T02:15:01.569Z,80.42
2023-05-05T02:16:05.545Z,79.42
2023-05-05T02:17:08.995Z,78.80
2023-05-05T02:18:11.613Z,78.33
2023-05-05T02:19:15.118Z,77.68
2023-05-05T02:20:19.262Z,77.55
2023-05-05T02:21:21.111Z,77.27
2023-05-05T02:22:23.136Z,76.96
2023-05-05T02:23:25.913Z,77.21
2023-05-05T02:24:27.801Z,77.04
2023-05-05T02:25:40.440Z,77.36
2023-05-05T02:26:46.105Z,77.21
2023-05-05T02:27:49.442Z,77.37
2023-05-05T02:29:07.630Z,77.69
2023-05-05T02:30:13.868Z,77.71
2023-05-05T02:31:17.990Z,77.81
2023-05-05T02:32:35.131Z,78.08
2023-05-05T02:33:38.815Z,78.60
2023-05-05T02:34:42.985Z,78.32
2023-05-05T02:35:47.399Z,78.19
2023-05-05T02:36:52.812Z,78.53
2023-05-05T02:38:02.823Z,78.15
2023-05-05T02:39:12.890Z,78.80
2023-05-05T02:40:18.024Z,79.01
2023-05-05T02:41:21.390Z,78.80
2023-05-05T02:42:24.092Z,78.73
2023-05-05T02:43:27.465Z,78.72
2023-05-05T02:44:31.985Z,78.51
2023-05-05T02:45:33.780Z,78.26
2023-05-05T02:46:37.985Z,78.57
2023-05-05T02:47:39.828Z,78.78
2023-05-05T02:48:41.666Z,78.79
2023-05-05T02:49:43.404Z,78.82
2023-05-05T02:50:45.101Z,79.02
2023-05-05T02:51:46.930Z,78.75
2023-05-05T02:52:48.778Z,78.86
2023-05-05T02:53:52.423Z,78.59
2023-05-05T02:54:54.235Z,78.57
2023-05-05T02:56:25.194Z,78.42
2023-05-05T02:57:36.161Z,78.53
2023-05-05T02:58:46.434Z,78.73
2023-05-05T03:00:05.783Z,78.62
2023-05-05T03:01:57.527Z,78.22
2023-05-05T03:03:18.978Z,78.13
2023-05-05T03:04:31.964Z,78.17
2023-05-05T03:05:41.673Z,77.70
2023-05-05T03:06:49.180Z,77.78
2023-05-05T03:08:00.746Z,77.63
2023-05-05T03:09:05.097Z,77.63
2023-05-05T03:10:14.151Z,78.23
2023-05-05T03:11:27.878Z,77.75
2023-05-05T03:12:45.445Z,77.47
2023-05-05T03:13:51.877Z,77.40
2023-05-05T03:14:58.202Z,77.87
2023-05-05T03:16:06.835Z,77.46
2023-05-05T03:17:13.570Z,77.32
2023-05-05T03:18:17.750Z,77.50
2023-05-05T03:19:21.494Z,76.83
2023-05-05T03:20:23.508Z,77.03
2023-05-05T03:21:25.617Z,76.99
2023-05-05T03:22:27.869Z,76.60
2023-05-05T03:23:29.660Z,76.84
2023-05-05T03:24:31.434Z,77.07
2023-05-05T03:25:46.366Z,76.86
2023-05-05T03:26:52.042Z,77.05
2023-05-05T03:27:53.733Z,76.92
2023-05-05T03:28:55.440Z,76.49
2023-05-05T03:29:57.335Z,76.44
2023-05-05T03:30:59.224Z,76.40
2023-05-05T03:32:01.573Z,76.26
2023-05-05T03:33:03.612Z,76.05
2023-05-05T03:34:06.283Z,76.34
2023-05-05T03:35:08.351Z,75.99
2023-05-05T03:36:10.784Z,76.01
2023-05-05T03:37:12.549Z,75.81
2023-05-05T03:38:14.240Z,75.60
2023-05-05T03:39:16.031Z,75.54
2023-05-05T03:40:17.816Z,75.83
2023-05-05T03:41:20.657Z,75.77
2023-05-05T03:42:22.392Z,75.80
2023-05-05T03:43:24.102Z,75.28
2023-05-05T03:44:25.797Z,75.49
2023-05-05T03:45:27.568Z,75.28
2023-05-05T03:46:29.320Z,75.34
2023-05-05T03:47:31.152Z,75.83
2023-05-05T03:48:34.237Z,75.68
2023-05-05T03:49:35.979Z,75.78
2023-05-05T03:50:37.830Z,75.92
2023-05-05T03:51:39.608Z,75.68
2023-05-05T03:52:41.356Z,75.96
2023-05-05T03:53:43.075Z,75.88
2023-05-05T03:54:46.222Z,75.83
2023-05-05T03:55:48.222Z,75.17
2023-05-05T03:56:49.915Z,75.48
2023-05-05T03:57:51.766Z,75.43
2023-05-05T03:58:53.497Z,75.47
2023-05-05T03:59:55.284Z,75.31
2023-05-05T04:00:57.469Z,75.62
2023-05-05T04:01:59.217Z,75.05
2023-05-05T04:03:01.110Z,75.17
2023-05-05T04:04:02.912Z,75.13
2023-05-05T04:05:04.970Z,75.33
2023-05-05T04:06:06.695Z,74.86
2023-05-05T04:07:08.458Z,74.77
2023-05-05T04:08:10.621Z,74.70
2023-05-05T04:09:12.456Z,74.79
2023-05-05T04:10:14.197Z,74.90
2023-05-05T04:11:16.230Z,74.88
2023-05-05T04:12:17.916Z,75.07
2023-05-05T04:13:19.712Z,74.66
2023-05-05T04:14:21.527Z,74.75
2023-05-05T04:15:23.330Z,74.76
2023-05-05T04:16:25.140Z,74.84
2023-05-05T04:17:27.063Z,74.87
2023-05-05T04:18:28.857Z,74.97
2023-05-05T04:19:33.523Z,75.14
2023-05-05T04:20:36.159Z,75.10
2023-05-05T04:21:37.977Z,75.05
2023-05-05T04:22:39.697Z,75.18
2023-05-05T04:23:41.430Z,74.94
2023-05-05T04:24:43.139Z,75.02
2023-05-05T04:25:44.906Z,74.77
2023-05-05T04:26:46.586Z,74.65
2023-05-05T04:27:48.281Z,74.59
2023-05-05T04:28:50.004Z,74.22
2023-05-05T04:29:52.086Z,74.59
2023-05-05T04:30:53.882Z,74.37
2023-05-05T04:31:56.268Z,74.51
2023-05-05T04:32:57.995Z,74.59
2023-05-05T04:33:59.835Z,74.60
2023-05-05T04:35:01.617Z,74.55
2023-05-05T04:36:03.395Z,74.35
2023-05-05T04:37:05.136Z,74.61
2023-05-05T04:38:06.843Z,74.51
2023-05-05T04:39:08.784Z,74.40
2023-05-05T04:40:10.928Z,74.33
2023-05-05T04:41:12.897Z,74.51
2023-05-05T04:42:14.700Z,74.60
2023-05-05T04:43:16.421Z,74.42
2023-05-05T04:44:18.227Z,74.27
2023-05-05T04:45:19.960Z,74.00
2023-05-05T04:46:22.066Z,73.96
2023-05-05T04:47:23.789Z,73.38
2023-05-05T04:48:25.556Z,73.89
2023-05-05T04:49:30.356Z,73.45
2023-05-05T04:50:32.606Z,73.56
2023-05-05T04:51:34.356Z,73.60
2023-05-05T04:52:36.168Z,73.61
2023-05-05T04:53:37.926Z,73.69
2023-05-05T04:54:39.652Z,74.12
2023-05-05T04:55:41.472Z,73.58
2023-05-05T04:56:43.168Z,73.94
2023-05-05T04:57:44.861Z,74.00
2023-05-05T04:58:46.564Z,74.10
2023-05-05T04:59:48.362Z,73.69
2023-05-05T05:00:50.059Z,74.15
2023-05-05T05:01:51.973Z,74.40
2023-05-05T05:02:57.240Z,73.62
2023-05-05T05:03:59.147Z,73.57
2023-05-05T05:05:00.939Z,73.24
2023-05-05T05:06:02.694Z,73.13
2023-05-05T05:07:04.378Z,73.29
2023-05-05T05:08:06.436Z,73.13
2023-05-05T05:09:08.461Z,73.00
2023-05-05T05:10:10.717Z,73.04
2023-05-05T05:11:12.792Z,73.00
2023-05-05T05:12:14.503Z,73.02
2023-05-05T05:13:16.254Z,72.75
2023-05-05T05:14:17.968Z,72.53
2023-05-05T05:15:19.788Z,73.08
2023-05-05T05:16:22.015Z,72.63
2023-05-05T05:17:25.068Z,72.88
2023-05-05T05:18:27.070Z,72.29
2023-05-05T05:19:29.233Z,71.89
2023-05-05T05:20:31.512Z,72.07
2023-05-05T05:21:33.236Z,72.39
2023-05-05T05:22:35.071Z,71.96
2023-05-05T05:23:36.875Z,71.92
2023-05-05T05:24:38.637Z,71.10
2023-05-05T05:25:40.400Z,71.42
2023-05-05T05:26:42.106Z,71.73
2023-05-05T05:27:43.822Z,71.90
2023-05-05T05:28:45.896Z,71.58
2023-05-05T05:29:47.634Z,71.71
2023-05-05T05:30:49.373Z,71.49
2023-05-05T05:31:51.243Z,71.21
2023-05-05T05:32:53.190Z,71.47
2023-05-05T05:33:56.302Z,70.94
2023-05-05T05:34:58.037Z,70.83
2023-05-05T05:35:59.718Z,70.90
2023-05-05T05:37:01.493Z,71.06
2023-05-05T05:38:03.192Z,70.86
2023-05-05T05:39:04.902Z,70.84
2023-05-05T05:40:07.360Z,71.37
2023-05-05T05:41:09.751Z,71.26
2023-05-05T05:42:11.454Z,70.56
2023-05-05T05:43:13.125Z,70.70
2023-05-05T05:44:14.837Z,70.54
2023-05-05T05:45:16.649Z,70.83
2023-05-05T05:46:18.473Z,70.57
2023-05-05T05:47:20.269Z,70.98
2023-05-05T05:48:24.891Z,70.64
2023-05-05T05:49:26.905Z,71.02
2023-05-05T05:50:28.843Z,70.99
2023-05-05T05:51:30.595Z,71.27
2023-05-05T05:52:32.544Z,70.68
2023-05-05T05:53:34.267Z,70.08
2023-05-05T05:54:36.017Z,69.80
2023-05-05T05:55:37.761Z,69.86
2023-05-05T05:56:39.539Z,70.21
2023-05-05T05:57:41.268Z,69.81
2023-05-05T05:58:42.981Z,69.56
2023-05-05T05:59:44.903Z,69.66
2023-05-05T06:00:47.965Z,69.82
2023-05-05T06:01:49.687Z,69.05
2023-05-05T06:02:51.786Z,69.01
2023-05-05T06:03:53.842Z,68.89
2023-05-05T06:04:55.614Z,68.60
2023-05-05T06:05:59.516Z,68.61
2023-05-05T06:07:01.406Z,68.78
2023-05-05T06:08:03.192Z,68.85
2023-05-05T06:09:04.908Z,69.28
2023-05-05T06:10:25.155Z,68.44
2023-05-05T06:11:28.000Z,67.93
2023-05-05T06:12:29.847Z,68.87
2023-05-05T06:13:31.621Z,68.09
2023-05-05T06:14:33.353Z,67.66
2023-05-05T06:15:35.040Z,67.71
2023-05-05T06:16:36.731Z,67.36
2023-05-05T06:17:38.550Z,66.61
2023-05-05T06:18:40.353Z,66.71
2023-05-05T06:19:43.403Z,66.48
2023-05-05T06:20:45.264Z,66.02
2023-05-05T06:21:47.116Z,66.33
2023-05-05T06:22:48.857Z,64.75
2023-05-05T06:23:53.645Z,65.89
2023-05-05T06:24:55.416Z,66.38
2023-05-05T06:25:57.293Z,66.01
2023-05-05T06:26:59.777Z,65.18
2023-05-05T06:28:02.546Z,64.36
2023-05-05T06:29:04.305Z,65.15
2023-05-05T06:30:07.665Z,64.66
2023-05-05T06:31:09.839Z,65.22
2023-05-05T06:32:12.822Z,64.64
2023-05-05T06:33:14.558Z,65.41
2023-05-05T06:34:16.330Z,64.48
2023-05-05T06:35:18.564Z,63.86
2023-05-05T06:36:20.341Z,63.60
2023-05-05T06:37:22.021Z,63.85
2023-05-05T06:38:23.966Z,64.55
2023-05-05T06:39:25.671Z,64.04
2023-05-05T06:40:27.414Z,65.22
2023-05-05T06:41:29.212Z,63.68
2023-05-05T06:42:32.294Z,64.57
2023-05-05T06:43:34.799Z,62.00
2023-05-05T06:44:36.625Z,60.42
2023-05-05T06:45:38.335Z,61.62
2023-05-05T06:46:40.383Z,62.05
2023-05-05T06:47:45.289Z,61.14
2023-05-05T06:48:47.029Z,59.41
2023-05-05T06:49:48.724Z,60.64
2023-05-05T06:50:50.407Z,60.48
2023-05-05T06:51:52.115Z,58.68
2023-05-05T06:52:53.808Z,59.91
2023-05-05T06:53:55.583Z,59.52
2023-05-05T06:54:57.289Z,59.46
2023-05-05T06:55:59.064Z,58.58
2023-05-05T06:57:00.863Z,58.59
2023-05-05T06:58:02.726Z,57.04
2023-05-05T06:59:04.430Z,56.11
2023-05-05T07:00:10.008Z,56.26
2023-05-05T07:01:12.180Z,55.53
2023-05-05T07:02:13.945Z,56.37
2023-05-05T07:03:15.772Z,55.89
2023-05-05T07:04:17.634Z,54.93
2023-05-05T07:05:19.608Z,53.86
2023-05-05T07:06:21.324Z,53.69
2023-05-05T07:07:23.047Z,53.63
2023-05-05T07:08:25.488Z,52.68
2023-05-05T07:09:27.212Z,54.61
2023-05-05T07:10:28.983Z,55.06
2023-05-05T07:11:30.755Z,56.15
2023-05-05T07:12:32.568Z,54.76
2023-05-05T07:13:34.295Z,54.45
2023-05-05T07:14:36.099Z,52.35
2023-05-05T07:15:37.896Z,52.40
2023-05-05T07:16:39.667Z,51.74
2023-05-05T07:17:41.733Z,52.14
2023-05-05T07:18:43.455Z,50.38
2023-05-05T07:19:45.276Z,50.82
2023-05-05T07:20:47.303Z,50.13
2023-05-05T07:21:49.010Z,50.43
2023-05-05T07:22:50.688Z,50.86
2023-05-05T07:23:52.435Z,53.02
2023-05-05T07:24:54.200Z,49.30
2023-05-05T07:25:56.148Z,49.67
2023-05-05T07:26:57.918Z,49.57
2023-05-05T07:27:59.780Z,49.93
2023-05-05T07:29:02.875Z,51.13
2023-05-05T07:30:10.177Z,49.88
2023-05-05T07:31:14.266Z,47.45
2023-05-05T07:32:16.243Z,47.29
2023-05-05T07:33:18.751Z,49.13
2023-05-05T07:34:20.586Z,46.88
2023-05-05T07:35:23.451Z,49.41
2023-05-05T07:36:25.232Z,47.44
2023-05-05T07:37:27.273Z,45.30
2023-05-05T07:38:29.033Z,47.05
2023-05-05T07:39:31.329Z,46.42
2023-05-05T07:40:34.551Z,46.34
2023-05-05T07:41:36.434Z,45.46
2023-05-05T07:42:38.157Z,46.54
2023-05-05T07:43:44.535Z,43.78
2023-05-05T07:44:46.490Z,45.39
2023-05-05T07:45:48.230Z,45.67
2023-05-05T07:46:50.061Z,44.42
2023-05-05T07:47:51.786Z,46.83
2023-05-05T07:48:53.536Z,45.25
2023-05-05T07:49:55.216Z,46.69
2023-05-05T07:50:56.923Z,44.15
2023-05-05T07:51:58.657Z,45.46
2023-05-05T07:53:10.768Z,42.66
2023-05-05T07:54:19.376Z,41.30
2023-05-05T07:55:21.373Z,41.48
2023-05-05T07:56:23.176Z,41.88
2023-05-05T07:57:24.932Z,42.98
2023-05-05T07:58:26.636Z,41.24
2023-05-05T07:59:28.341Z,41.31
2023-05-05T08:00:30.131Z,41.21
2023-05-05T08:01:32.041Z,41.29
2023-05-05T08:02:33.929Z,42.03
2023-05-05T08:03:36.003Z,42.19
2023-05-05T08:04:38.036Z,41.54
2023-05-05T08:05:39.817Z,41.03
2023-05-05T08:06:41.515Z,39.80
2023-05-05T08:07:44.413Z,41.33
2023-05-05T08:08:46.119Z,38.87
2023-05-05T08:09:47.836Z,38.50
2023-05-05T08:10:51.574Z,38.73
2023-05-05T08:11:53.307Z,38.39
2023-05-05T08:12:55.121Z,38.36
2023-05-05T08:13:56.839Z,36.34
2023-05-05T08:14:58.524Z,37.89
2023-05-05T08:16:00.376Z,35.97
2023-05-05T08:17:02.158Z,37.37
2023-05-05T08:18:04.036Z,36.16
2023-05-05T08:19:14.597Z,37.78
2023-05-05T08:20:27.591Z,36.84
2023-05-05T08:21:29.338Z,36.87
2023-05-05T08:22:31.194Z,37.49
2023-05-05T08:23:35.101Z,37.31
2023-05-05T08:24:36.867Z,37.85
2023-05-05T08:25:38.617Z,38.53
2023-05-05T08:26:40.321Z,38.28
2023-05-05T08:27:43.072Z,38.50
2023-05-05T08:28:44.806Z,35.59
2023-05-05T08:29:46.527Z,35.84
2023-05-05T08:30:49.871Z,37.51
2023-05-05T08:31:51.627Z,36.77
2023-05-05T08:32:53.642Z,35.81
2023-05-05T08:33:55.988Z,33.97
2023-05-05T08:34:57.751Z,35.08
2023-05-05T08:35:59.553Z,34.79
2023-05-05T08:37:01.224Z,36.63
2023-05-05T08:38:02.939Z,33.99
2023-05-05T08:39:04.757Z,35.95
2023-05-05T08:40:07.537Z,33.39
2023-05-05T08:41:13.142Z,33.85
2023-05-05T08:42:25.505Z,33.16
2023-05-05T08:43:36.607Z,34.09
2023-05-05T08:44:38.473Z,34.37
2023-05-05T08:45:41.849Z,33.44
2023-05-05T08:46:43.842Z,34.68
2023-05-05T08:47:45.655Z,34.29
2023-05-05T08:48:48.895Z,32.75
2023-05-05T08:49:55.787Z,33.39
2023-05-05T08:51:05.646Z,32.56
2023-05-05T08:52:11.742Z,30.26
2023-05-05T08:53:17.744Z,31.41
2023-05-05T08:54:20.632Z,31.35
2023-05-05T08:55:26.845Z,31.23
2023-05-05T08:56:38.507Z,31.24
2023-05-05T08:57:55.678Z,30.98
2023-05-05T08:58:59.402Z,33.23
2023-05-05T09:00:03.137Z,31.58
2023-05-05T09:01:07.051Z,29.46
2023-05-05T09:02:10.660Z,31.09
2023-05-05T09:03:13.196Z,30.07
2023-05-05T09:04:15.837Z,31.33
2023-05-05T09:05:18.170Z,30.81
2023-05-05T09:06:25.717Z,31.86
2023-05-05T09:07:27.712Z,32.07
2023-05-05T09:08:29.748Z,33.67
2023-05-05T09:09:32.104Z,33.11
2023-05-05T09:10:35.398Z,31.75
2023-05-05T09:11:39.163Z,30.89
2023-05-05T09:12:41.714Z,30.23
2023-05-05T09:15:03.967Z,29.98
2023-05-05T09:16:06.139Z,31.55
2023-05-05T09:17:22.914Z,29.71
2023-05-05T09:18:24.916Z,29.07
2023-05-05T09:19:26.640Z,29.04
2023-05-05T09:20:39.229Z,30.45
2023-05-05T09:21:49.907Z,29.83
2023-05-05T09:22:51.718Z,29.86
2023-05-05T09:24:09.102Z,31.18
2023-05-05T09:25:16.848Z,30.20
2023-05-05T09:26:18.598Z,31.43
2023-05-05T09:27:23.581Z,31.72
2023-05-05T09:28:26.118Z,30.72
2023-05-05T09:29:27.863Z,30.94
2023-05-05T09:30:29.704Z,30.55
2023-05-05T09:31:32.377Z,30.86
2023-05-05T09:32:48.377Z,30.14
2023-05-05T09:33:50.202Z,28.70
2023-05-05T09:34:58.728Z,29.59
2023-05-05T09:36:00.754Z,30.79
2023-05-05T09:37:02.508Z,28.41
2023-05-05T09:38:13.190Z,28.81
2023-05-05T09:39:17.939Z,29.40
2023-05-05T09:40:20.848Z,28.22
2023-05-05T09:41:43.618Z,27.34
2023-05-05T09:42:45.853Z,28.91
2023-05-05T09:43:52.042Z,27.57
2023-05-05T09:44:54.428Z,27.89
2023-05-05T09:46:16.816Z,27.31
2023-05-05T09:47:29.328Z,28.75
2023-05-05T09:48:32.598Z,27.21
2023-05-05T09:49:36.352Z,27.67
2023-05-05T09:50:44.620Z,28.12
2023-05-05T09:51:47.331Z,28.12
2023-05-05T09:52:55.219Z,28.58
2023-05-05T09:53:57.788Z,29.85
2023-05-05T09:54:59.648Z,30.23
2023-05-05T09:56:01.473Z,29.51
2023-05-05T09:57:03.236Z,29.64
2023-05-05T09:58:23.731Z,30.15
2023-05-05T09:59:25.801Z,27.87
2023-05-05T10:00:39.821Z,28.52
2023-05-05T10:01:43.557Z,29.72
2023-05-05T10:02:45.644Z,29.17
2023-05-05T10:03:52.296Z,30.00
2023-05-05T10:05:05.889Z,29.63
2023-05-05T10:06:07.966Z,29.83
2023-05-05T10:07:23.515Z,30.15
2023-05-05T10:08:34.402Z,29.07
2023-05-05T10:09:35.983Z,30.35
2023-05-05T10:10:46.153Z,31.10
2023-05-05T10:11:48.072Z,31.17
2023-05-05T10:12:50.446Z,30.14
2023-05-05T10:13:52.386Z,31.16
2023-05-05T10:14:56.567Z,32.44
2023-05-05T10:15:58.846Z,31.21
2023-05-05T10:17:01.815Z,29.23
2023-05-05T10:18:07.519Z,29.66
2023-05-05T10:19:14.399Z,30.86
2023-05-05T10:20:16.266Z,29.45
2023-05-05T10:21:21.728Z,29.29
2023-05-05T10:22:25.105Z,31.23
2023-05-05T10:23:49.814Z,30.81
2023-05-05T10:25:22.293Z,29.26
2023-05-05T10:26:27.737Z,27.19
2023-05-05T10:27:34.198Z,27.00
2023-05-05T10:28:46.278Z,29.73
2023-05-05T10:30:07.784Z,29.29
2023-05-05T10:31:26.083Z,29.57
2023-05-05T10:33:18.276Z,29.72
2023-05-05T10:34:45.909Z,27.47
2023-05-05T10:35:52.780Z,25.85
2023-05-05T10:36:57.043Z,26.52
2023-05-05T10:38:01.201Z,24.95
2023-05-05T10:39:03.491Z,25.76
2023-05-05T10:40:06.338Z,27.27
2023-05-05T10:41:10.282Z,25.62
2023-05-05T10:42:15.131Z,27.86
2023-05-05T10:43:17.653Z,27.18
2023-05-05T10:44:19.670Z,26.09
2023-05-05T10:45:21.494Z,26.02
2023-05-05T10:46:24.238Z,25.57
2023-05-05T10:47:28.313Z,26.07
2023-05-05T10:48:41.207Z,26.12
2023-05-05T10:50:27.736Z,27.60
2023-05-05T10:51:55.709Z,26.43
2023-05-05T10:53:18.840Z,24.13
2023-05-05T10:54:32.205Z,27.04
2023-05-05T10:55:59.301Z,26.84
2023-05-05T10:57:02.800Z,26.44
2023-05-05T10:58:04.483Z,26.80
2023-05-05T10:59:39.188Z,25.77
2023-05-05T11:00:41.609Z,26.55
2023-05-05T11:01:46.908Z,26.66
2023-05-05T11:02:52.785Z,26.72
2023-05-05T11:04:19.663Z,26.90
2023-05-05T11:05:22.503Z,27.22
2023-05-05T11:06:24.241Z,27.54
2023-05-05T11:07:27.616Z,28.04
2023-05-05T11:08:33.297Z,28.55
2023-05-05T11:09:42.286Z,27.68
2023-05-05T11:10:44.904Z,28.48
2023-05-05T11:12:03.535Z,27.67
2023-05-05T11:13:05.199Z,28.98
2023-05-05T11:14:24.988Z,29.20
2023-05-05T11:15:26.703Z,29.15
2023-05-05T11:16:47.849Z,29.15
2023-05-05T11:17:50.107Z,29.29
2023-05-05T11:18:51.890Z,27.67
2023-05-05T11:19:53.620Z,29.15
2023-05-05T11:20:58.401Z,28.29
2023-05-05T11:22:01.936Z,29.09
2023-05-05T11:23:03.662Z,28.65
2023-05-05T11:24:39.828Z,28.78
2023-05-05T11:25:44.730Z,28.19
2023-05-05T11:26:51.492Z,27.70
2023-05-05T11:28:06.516Z,27.43
2023-05-05T11:29:08.531Z,27.47
2023-05-05T11:30:11.148Z,29.35
2023-05-05T11:31:17.151Z,29.69
2023-05-05T11:32:20.042Z,30.71
2023-05-05T11:33:31.298Z,31.14
2023-05-05T11:34:33.222Z,32.39
2023-05-05T11:36:17.166Z,32.50
2023-05-05T11:37:24.252Z,32.50
2023-05-05T11:39:02.508Z,33.47
2023-05-05T11:40:22.067Z,33.75
2023-05-05T11:41:40.854Z,34.12
2023-05-05T11:42:42.638Z,35.02
2023-05-05T11:43:44.467Z,34.87
2023-05-05T11:44:49.144Z,33.29
2023-05-05T11:46:10.959Z,33.42
2023-05-05T11:47:12.626Z,33.84
2023-05-05T11:48:27.450Z,35.23
2023-05-05T11:49:30.674Z,36.13
2023-05-05T11:50:33.426Z,35.47
2023-05-05T11:51:35.331Z,35.17
2023-05-05T11:52:37.070Z,35.64
2023-05-05T11:53:45.570Z,34.90
2023-05-05T11:54:48.785Z,35.82
2023-05-05T11:56:06.350Z,34.98
2023-05-05T11:57:09.241Z,37.67
2023-05-05T11:58:20.762Z,38.34
2023-05-05T11:59:22.900Z,38.83
2023-05-05T12:00:34.434Z,37.61
2023-05-05T12:01:41.129Z,36.90
2023-05-05T12:02:43.142Z,36.15
2023-05-05T12:03:46.002Z,35.73
2023-05-05T12:04:48.913Z,35.66
2023-05-05T12:05:54.941Z,36.65
2023-05-05T12:06:57.783Z,37.20
2023-05-05T12:07:59.849Z,36.78
2023-05-05T12:09:02.290Z,37.89
2023-05-05T12:10:04.291Z,36.71
2023-05-05T12:11:08.769Z,36.34
2023-05-05T12:12:10.579Z,37.65
2023-05-05T12:13:21.641Z,37.69
2023-05-05T12:14:24.763Z,36.81
2023-05-05T12:15:31.156Z,35.64
2023-05-05T12:16:32.916Z,36.11
2023-05-05T12:17:40.155Z,34.74
2023-05-05T12:18:42.525Z,34.92
2023-05-05T12:20:02.136Z,34.42
2023-05-05T12:21:17.937Z,35.13
2023-05-05T12:22:25.651Z,34.85
2023-05-05T12:23:30.150Z,34.96
2023-05-05T12:24:32.102Z,35.59
2023-05-05T12:25:38.333Z,36.47
2023-05-05T12:26:40.379Z,35.43
2023-05-05T12:27:52.205Z,35.44
2023-05-05T12:28:54.358Z,36.41
2023-05-05T12:29:57.647Z,35.17
2023-05-05T12:30:59.615Z,35.92
2023-05-05T12:32:01.513Z,35.48
2023-05-05T12:33:04.993Z,35.82
2023-05-05T12:34:08.863Z,35.54
2023-05-05T12:35:11.923Z,35.53
2023-05-05T12:36:14.332Z,36.14
2023-05-05T12:37:19.245Z,35.20
2023-05-05T12:38:21.142Z,35.65
2023-05-05T12:39:22.935Z,36.58
2023-05-05T12:40:46.478Z,35.54
2023-05-05T12:41:48.303Z,36.07
2023-05-05T12:42:50.086Z,36.79
2023-05-05T12:43:59.006Z,36.82
2023-05-05T12:45:00.810Z,35.29
2023-05-05T12:46:05.441Z,35.44
2023-05-05T12:47:07.634Z,35.39
2023-05-05T12:48:22.585Z,35.57
2023-05-05T12:49:24.327Z,35.39
2023-05-05T12:50:32.773Z,36.51
2023-05-05T12:51:36.152Z,36.06
2023-05-05T12:52:45.316Z,36.36
2023-05-05T12:53:48.804Z,36.23
2023-05-05T12:55:00.028Z,36.55
2023-05-05T12:56:01.906Z,36.92
2023-05-05T12:57:11.545Z,36.39
2023-05-05T12:58:13.273Z,35.96
2023-05-05T12:59:24.196Z,36.09
2023-05-05T13:00:26.443Z,36.26
2023-05-05T13:01:29.793Z,36.28
2023-05-05T13:02:35.967Z,35.97
2023-05-05T13:03:38.032Z,37.01
2023-05-05T13:04:50.714Z,37.47
2023-05-05T13:05:52.407Z,37.01
2023-05-05T13:07:10.023Z,36.61
2023-05-05T13:08:11.788Z,37.38
2023-05-05T13:09:27.148Z,36.75
2023-05-05T13:10:30.660Z,37.50
2023-05-05T13:11:39.047Z,37.09
2023-05-05T13:12:40.807Z,36.43
2023-05-05T13:13:42.605Z,37.04
2023-05-05T13:14:45.068Z,36.36
2023-05-05T13:15:46.827Z,37.40
2023-05-05T13:16:48.643Z,37.89
2023-05-05T13:17:50.473Z,36.93
2023-05-05T13:18:53.705Z,37.15
2023-05-05T13:19:58.410Z,37.78
2023-05-05T13:21:00.136Z,37.26
2023-05-05T13:22:02.166Z,37.29
2023-05-05T13:23:03.919Z,38.04
2023-05-05T13:24:21.191Z,37.45
2023-05-05T13:25:27.454Z,38.57
2023-05-05T13:26:29.703Z,39.24
2023-05-05T13:27:31.644Z,37.19
2023-05-05T13:28:33.417Z,36.93
2023-05-05T13:29:35.304Z,36.76
2023-05-05T13:30:37.136Z,37.36
2023-05-05T13:31:38.989Z,38.39
2023-05-05T13:32:41.472Z,39.58
2023-05-05T13:33:43.290Z,38.40
2023-05-05T13:34:44.991Z,38.22
2023-05-05T13:35:46.764Z,38.63
2023-05-05T13:36:48.606Z,39.54
2023-05-05T13:37:50.347Z,39.56
2023-05-05T13:38:52.068Z,42.53
2023-05-05T13:39:59.347Z,39.73
2023-05-05T13:41:01.178Z,39.13
2023-05-05T13:42:03.080Z,38.76
2023-05-05T13:43:04.770Z,39.06
2023-05-05T13:44:06.494Z,38.18
2023-05-05T13:45:08.808Z,38.25
2023-05-05T13:47:18.410Z,39.27
2023-05-05T13:48:21.042Z,39.71
2023-05-05T13:49:22.751Z,39.84
2023-05-05T13:50:24.476Z,39.94
2023-05-05T13:51:26.414Z,39.80
2023-05-05T13:52:30.492Z,39.13
2023-05-05T13:53:33.872Z,38.03
2023-05-05T13:54:35.570Z,38.37
2023-05-05T13:55:37.423Z,37.88
2023-05-05T13:56:39.144Z,37.81
2023-05-05T13:57:40.813Z,38.50
2023-05-05T13:58:42.623Z,38.59